Time;durP1;ratioP1;P1;durP2;ratioP2;P2;SDS_P1;SDS_P2;PMS_P1;PMS_P2;Temp;Humidity;BMP_temperature;BMP_pressure;BME280_temperature;BME280_humidity;BME280_pressure;Samples;Min_cycle;Max_cycle;Signal;HPM_P1;HPM_P2
2021/05/21 01:40:22;;;;;;;11.37;2.90;;;;;;;;;;13134636;22;20176;-87
2021/05/21 01:45:25;;;;;;;12.83;3.23;;;;;;;;;;13165059;22;20252;-88
2021/05/21 01:50:27;;;;;;;15.43;3.80;;;;;;;;;;13164925;22;20550;-87
2021/05/21 01:55:31;;;;;;;16.10;3.20;;;;;;;;;;13165088;22;20556;-89
2021/05/21 02:00:34;;;;;;;13.47;2.97;;;;;;;;;;13166573;22;20168;-88
2021/05/21 02:05:36;;;;;;;19.53;3.60;;;;;;;;;;13163003;22;20214;-88
2021/05/21 02:10:40;;;;;;;10.97;2.70;;;;;;;;;;13168818;22;20177;-86
2021/05/21 02:15:43;;;;;;;14.17;2.97;;;;;;;;;;13167392;22;20647;-89
2021/05/21 02:20:46;;;;;;;14.97;3.30;;;;;;;;;;13167634;22;20720;-88
2021/05/21 02:25:50;;;;;;;15.30;3.60;;;;;;;;;;13167782;22;20602;-89
2021/05/21 02:30:53;;;;;;;18.37;3.80;;;;;;;;;;13166255;22;20617;-87
2021/05/21 02:35:55;;;;;;;18.13;3.30;;;;;;;;;;13165324;22;20172;-88
2021/05/21 02:40:59;;;;;;;12.73;3.10;;;;;;;;;;13167912;22;20183;-89
2021/05/21 02:46:02;;;;;;;14.67;3.27;;;;;;;;;;13164153;22;20291;-89
2021/05/21 02:51:05;;;;;;;16.17;3.37;;;;;;;;;;13167607;22;20547;-89
2021/05/21 02:56:08;;;;;;;16.50;3.43;;;;;;;;;;13165725;22;20684;-87
2021/05/21 03:01:11;;;;;;;13.07;3.50;;;;;;;;;;13165390;22;20314;-89
2021/05/21 03:06:14;;;;;;;15.23;3.60;;;;;;;;;;13169128;22;20214;-89
2021/05/21 03:11:17;;;;;;;15.13;3.63;;;;;;;;;;13170546;22;20249;-90
2021/05/21 03:16:20;;;;;;;19.93;4.00;;;;;;;;;;13166759;22;20233;-88
2021/05/21 03:21:23;;;;;;;20.93;3.53;;;;;;;;;;13170420;22;20583;-88
2021/05/21 03:26:30;;;;;;;19.80;3.73;;;;;;;;;;13167160;22;20367;-89
2021/05/21 03:31:33;;;;;;;15.77;3.23;;;;;;;;;;13166668;22;20203;-90
2021/05/21 03:36:36;;;;;;;16.13;3.63;;;;;;;;;;13170099;22;20669;-91
2021/05/21 03:41:40;;;;;;;18.20;3.70;;;;;;;;;;13173915;22;20648;-89
2021/05/21 03:46:43;;;;;;;17.20;3.73;;;;;;;;;;13173614;22;20200;-89
2021/05/21 03:51:46;;;;;;;19.53;3.57;;;;;;;;;;13174863;22;20705;-88
2021/05/21 03:56:50;;;;;;;21.17;3.97;;;;;;;;;;13170827;22;20172;-88
2021/05/21 04:01:52;;;;;;;19.10;3.67;;;;;;;;;;13169687;22;20540;-88
2021/05/21 04:06:55;;;;;;;21.50;4.27;;;;;;;;;;13169969;22;20204;-87
2021/05/21 04:11:59;;;;;;;15.77;3.90;;;;;;;;;;13169802;22;20263;-89
2021/05/21 04:17:02;;;;;;;21.97;3.90;;;;;;;;;;13170251;22;20206;-87
2021/05/21 04:22:04;;;;;;;19.67;3.60;;;;;;;;;;13176355;22;20199;-87
2021/05/21 04:27:08;;;;;;;18.63;3.40;;;;;;;;;;13167551;22;20231;-88
2021/05/21 04:32:11;;;;;;;17.40;4.00;;;;;;;;;;13164524;22;20202;-89
2021/05/21 04:37:13;;;;;;;17.43;3.63;;;;;;;;;;13169001;22;20669;-88
2021/05/21 04:42:17;;;;;;;16.70;3.40;;;;;;;;;;13168601;22;20247;-88
2021/05/21 04:47:19;;;;;;;15.97;3.40;;;;;;;;;;13167037;22;20204;-80
2021/05/21 04:52:22;;;;;;;16.30;3.53;;;;;;;;;;13161876;22;20221;-80
2021/05/21 04:57:26;;;;;;;17.73;3.30;;;;;;;;;;13160457;22;20221;-80
2021/05/21 05:02:29;;;;;;;19.47;3.37;;;;;;;;;;13139565;22;20192;-79
2021/05/21 05:07:31;;;;;;;15.47;3.57;;;;;;;;;;13160940;22;20203;-80
2021/05/21 05:12:35;;;;;;;14.57;3.30;;;;;;;;;;13140727;22;20199;-80
2021/05/21 05:17:37;;;;;;;17.17;3.47;;;;;;;;;;13132066;22;20278;-85
2021/05/21 05:22:42;;;;;;;17.00;3.20;;;;;;;;;;13141848;22;20268;-79
2021/05/21 05:27:45;;;;;;;10.87;2.77;;;;;;;;;;13136789;22;20204;-80
2021/05/21 05:32:48;;;;;;;15.87;3.50;;;;;;;;;;13135149;22;20221;-79
2021/05/21 05:37:50;;;;;;;13.10;3.20;;;;;;;;;;13135972;22;20202;-80
2021/05/21 05:42:54;;;;;;;11.53;3.40;;;;;;;;;;13159732;22;20182;-79
2021/05/21 05:47:56;;;;;;;20.57;3.60;;;;;;;;;;13159475;22;20199;-85
2021/05/21 05:53:00;;;;;;;18.50;3.00;;;;;;;;;;13166324;22;20648;-83
2021/05/21 05:58:08;;;;;;;18.37;3.43;;;;;;;;;;13165023;22;20169;-81
2021/05/21 06:03:11;;;;;;;14.23;3.20;;;;;;;;;;13161624;22;20220;-84
2021/05/21 06:08:14;;;;;;;15.30;3.47;;;;;;;;;;13143578;22;20267;-83
2021/05/21 06:13:17;;;;;;;15.47;3.63;;;;;;;;;;13163834;22;20173;-84
2021/05/21 06:18:20;;;;;;;15.47;2.93;;;;;;;;;;13138975;22;20230;-84
2021/05/21 06:23:23;;;;;;;14.50;3.20;;;;;;;;;;13143447;22;20186;-84
2021/05/21 06:28:26;;;;;;;14.40;3.07;;;;;;;;;;13165643;22;20275;-85
2021/05/21 06:33:29;;;;;;;14.93;3.10;;;;;;;;;;13159653;22;20255;-83
2021/05/21 06:38:31;;;;;;;11.83;3.00;;;;;;;;;;13164803;22;20598;-86
2021/05/21 06:43:35;;;;;;;13.93;3.10;;;;;;;;;;13161457;22;20200;-83
2021/05/21 06:48:37;;;;;;;12.67;3.30;;;;;;;;;;13142266;22;20448;-85
2021/05/21 06:53:40;;;;;;;13.80;3.30;;;;;;;;;;13162432;22;20264;-84
2021/05/21 06:58:43;;;;;;;12.93;3.33;;;;;;;;;;13163559;22;20527;-84
2021/05/21 07:03:46;;;;;;;16.00;3.10;;;;;;;;;;13160962;22;20207;-83
2021/05/21 07:08:49;;;;;;;11.13;3.40;;;;;;;;;;13166012;22;20712;-84
2021/05/21 07:13:53;;;;;;;12.90;2.83;;;;;;;;;;13162603;22;20189;-85
2021/05/21 07:18:57;;;;;;;10.13;3.10;;;;;;;;;;13163674;22;20168;-85
2021/05/21 07:24:01;;;;;;;9.90;3.10;;;;;;;;;;13166339;22;20711;-85
2021/05/21 07:29:04;;;;;;;8.67;3.00;;;;;;;;;;13168995;22;20621;-85
2021/05/21 07:34:06;;;;;;;10.13;2.40;;;;;;;;;;13142342;22;20233;-84
2021/05/21 07:39:09;;;;;;;9.17;2.90;;;;;;;;;;13168043;22;20180;-85
2021/05/21 07:44:12;;;;;;;14.13;3.00;;;;;;;;;;13168015;22;20208;-85
2021/05/21 07:49:15;;;;;;;12.07;3.20;;;;;;;;;;13141582;22;20208;-86
2021/05/21 07:54:17;;;;;;;11.40;2.87;;;;;;;;;;13147883;22;20638;-85
2021/05/21 07:59:20;;;;;;;12.10;2.90;;;;;;;;;;13146007;22;20204;-86
2021/05/21 08:04:23;;;;;;;13.60;2.90;;;;;;;;;;13164799;22;20205;-86
2021/05/21 08:09:26;;;;;;;10.60;2.77;;;;;;;;;;13166345;22;20263;-85
2021/05/21 08:14:30;;;;;;;10.20;2.70;;;;;;;;;;13168260;22;20195;-85
2021/05/21 08:19:33;;;;;;;10.73;3.00;;;;;;;;;;13162522;22;20180;-85
2021/05/21 08:24:36;;;;;;;8.13;2.90;;;;;;;;;;13166814;22;20378;-84
2021/05/21 08:29:39;;;;;;;9.30;3.00;;;;;;;;;;13164785;22;20255;-85
2021/05/21 08:34:42;;;;;;;9.30;2.50;;;;;;;;;;13164879;22;20172;-86
2021/05/21 08:39:45;;;;;;;9.70;2.60;;;;;;;;;;13164881;22;20180;-85
2021/05/21 08:44:49;;;;;;;9.70;2.40;;;;;;;;;;13145253;22;20211;-86
2021/05/21 08:49:52;;;;;;;11.97;2.70;;;;;;;;;;13163238;22;20176;-86
2021/05/21 08:54:54;;;;;;;11.00;2.63;;;;;;;;;;13146034;22;20176;-84
2021/05/21 08:59:58;;;;;;;7.53;2.27;;;;;;;;;;13164954;22;20416;-84
2021/05/21 09:05:01;;;;;;;8.67;2.50;;;;;;;;;;13141234;22;20214;-83
2021/05/21 09:10:08;;;;;;;5.77;2.27;;;;;;;;;;13164092;22;20186;-84
2021/05/21 09:15:13;;;;;;;9.43;2.50;;;;;;;;;;13165640;22;20559;-84
2021/05/21 09:20:22;;;;;;;7.57;2.30;;;;;;;;;;13162167;22;20198;-85
2021/05/21 09:25:39;;;;;;;9.87;2.40;;;;;;;;;;13165154;22;20211;-84
2021/05/21 09:31:02;;;;;;;8.50;2.50;;;;;;;;;;13143564;22;20168;-85
2021/05/21 09:36:05;;;;;;;9.70;2.33;;;;;;;;;;13166284;22;20171;-84
2021/05/21 09:41:08;;;;;;;8.40;2.50;;;;;;;;;;13165118;22;20176;-85
2021/05/21 09:46:12;;;;;;;8.73;2.40;;;;;;;;;;13162599;22;20218;-85
2021/05/21 09:51:15;;;;;;;11.60;2.60;;;;;;;;;;13142716;22;20559;-86
2021/05/21 09:56:19;;;;;;;5.83;2.13;;;;;;;;;;13167263;22;20267;-85
2021/05/21 10:01:29;;;;;;;5.87;1.90;;;;;;;;;;13162791;22;20672;-85
2021/05/21 10:06:31;;;;;;;6.83;2.30;;;;;;;;;;13167462;22;20809;-86
2021/05/21 10:11:33;;;;;;;11.27;2.57;;;;;;;;;;13168821;22;20205;-86
2021/05/21 10:16:37;;;;;;;12.47;3.20;;;;;;;;;;13162471;22;20228;-85
2021/05/21 10:21:39;;;;;;;9.00;2.33;;;;;;;;;;13166792;22;20176;-86
2021/05/21 10:26:42;;;;;;;9.17;2.47;;;;;;;;;;13165443;22;20296;-86
2021/05/21 10:31:49;;;;;;;7.20;2.53;;;;;;;;;;13166443;22;20279;-85
2021/05/21 10:36:52;;;;;;;8.27;2.20;;;;;;;;;;13165275;22;20229;-85
2021/05/21 10:41:55;;;;;;;6.77;2.57;;;;;;;;;;13167849;22;20172;-84
2021/05/21 10:47:12;;;;;;;11.00;2.50;;;;;;;;;;13162590;22;20208;-86
2021/05/21 10:52:17;;;;;;;12.80;2.33;;;;;;;;;;13166460;22;20164;-85
2021/05/21 10:57:19;;;;;;;7.63;2.20;;;;;;;;;;13170932;22;20711;-85
2021/05/21 11:02:22;;;;;;;10.67;2.70;;;;;;;;;;13168561;22;20227;-85
2021/05/21 11:07:34;;;;;;;7.70;2.30;;;;;;;;;;13171322;22;20496;-85
2021/05/21 11:12:43;;;;;;;10.57;2.40;;;;;;;;;;13170019;22;20542;-87
2021/05/21 11:17:48;;;;;;;8.27;2.30;;;;;;;;;;13165890;22;20172;-85
2021/05/21 11:22:53;;;;;;;5.87;2.10;;;;;;;;;;13147884;22;20643;-85
2021/05/21 11:27:55;;;;;;;6.07;2.10;;;;;;;;;;13168982;22;20192;-86
2021/05/21 11:33:04;;;;;;;9.20;1.90;;;;;;;;;;13167071;22;20180;-85
2021/05/21 11:38:07;;;;;;;10.63;2.00;;;;;;;;;;13167889;22;20184;-86
2021/05/21 11:43:10;;;;;;;4.43;1.87;;;;;;;;;;13147430;22;20235;-85
2021/05/21 11:48:13;;;;;;;7.03;2.00;;;;;;;;;;13165939;22;20203;-83
2021/05/21 11:53:16;;;;;;;6.27;2.00;;;;;;;;;;13168934;22;20200;-84
2021/05/21 11:58:24;;;;;;;6.73;2.17;;;;;;;;;;13166288;22;20221;-85
2021/05/21 12:03:31;;;;;;;5.50;2.00;;;;;;;;;;13164874;22;20630;-85
2021/05/21 12:08:34;;;;;;;6.73;2.00;;;;;;;;;;13167756;22;20656;-85
2021/05/21 12:13:37;;;;;;;8.83;2.20;;;;;;;;;;13167386;22;20202;-85
2021/05/21 12:18:39;;;;;;;10.30;2.80;;;;;;;;;;13164474;22;20177;-84
2021/05/21 12:23:43;;;;;;;9.40;2.20;;;;;;;;;;13146674;22;20180;-83
2021/05/21 12:28:46;;;;;;;11.03;2.10;;;;;;;;;;13164669;22;20490;-87
2021/05/21 12:33:49;;;;;;;5.87;2.20;;;;;;;;;;13143157;22;20173;-83
2021/05/21 12:38:53;;;;;;;6.63;2.30;;;;;;;;;;13143939;22;20208;-85
2021/05/21 12:44:05;;;;;;;4.97;1.83;;;;;;;;;;13146482;22;20168;-86
2021/05/21 12:49:08;;;;;;;8.13;2.13;;;;;;;;;;13142412;22;20197;-85
2021/05/21 12:54:23;;;;;;;8.10;2.20;;;;;;;;;;13169409;22;20200;-84
2021/05/21 12:59:35;;;;;;;6.80;2.10;;;;;;;;;;13167254;22;20233;-82
2021/05/21 13:04:38;;;;;;;8.97;2.10;;;;;;;;;;13144099;22;20204;-84
2021/05/21 13:09:42;;;;;;;13.83;2.03;;;;;;;;;;13165705;22;20177;-85
2021/05/21 13:14:45;;;;;;;9.27;1.80;;;;;;;;;;13166012;22;20172;-84
2021/05/21 13:19:47;;;;;;;7.13;2.10;;;;;;;;;;13162545;22;20566;-84
2021/05/21 13:24:51;;;;;;;4.60;1.90;;;;;;;;;;13166794;22;20229;-85
2021/05/21 13:29:54;;;;;;;15.80;2.70;;;;;;;;;;13164233;22;20179;-85
2021/05/21 13:34:57;;;;;;;13.07;2.63;;;;;;;;;;13163536;22;20199;-84
2021/05/21 13:40:01;;;;;;;10.70;2.10;;;;;;;;;;13147480;22;20586;-84
2021/05/21 13:45:04;;;;;;;6.60;1.87;;;;;;;;;;13163516;22;20210;-85
2021/05/21 13:50:08;;;;;;;9.73;2.40;;;;;;;;;;13141724;22;20180;-85
2021/05/21 13:55:11;;;;;;;11.83;2.70;;;;;;;;;;13164865;22;20580;-84
2021/05/21 14:00:15;;;;;;;7.47;1.90;;;;;;;;;;13164802;22;20176;-83
2021/05/21 14:05:17;;;;;;;7.90;1.97;;;;;;;;;;13160236;22;20202;-84
2021/05/21 14:10:21;;;;;;;7.00;2.00;;;;;;;;;;13165965;22;20173;-85
2021/05/21 14:15:23;;;;;;;10.57;2.33;;;;;;;;;;13163230;22;20172;-85
2021/05/21 14:20:26;;;;;;;7.50;2.17;;;;;;;;;;13141785;22;20173;-83
2021/05/21 14:25:34;;;;;;;6.80;1.90;;;;;;;;;;13163043;22;20200;-86
2021/05/21 14:30:36;;;;;;;6.37;2.17;;;;;;;;;;13164038;22;20539;-84
2021/05/21 14:35:39;;;;;;;7.83;2.20;;;;;;;;;;13161560;22;20251;-85
2021/05/21 14:40:43;;;;;;;7.87;2.30;;;;;;;;;;13166520;22;20181;-85
2021/05/21 14:45:47;;;;;;;12.63;2.43;;;;;;;;;;13162544;22;20636;-85
2021/05/21 14:50:49;;;;;;;7.83;1.70;;;;;;;;;;13164511;22;20169;-84
2021/05/21 14:55:53;;;;;;;6.40;2.00;;;;;;;;;;13165323;22;20233;-83
2021/05/21 15:00:56;;;;;;;5.70;1.80;;;;;;;;;;13162544;22;20172;-85
2021/05/21 15:05:59;;;;;;;7.97;2.20;;;;;;;;;;13163517;22;20291;-84
2021/05/21 15:11:02;;;;;;;5.63;2.17;;;;;;;;;;13158312;22;20176;-83
2021/05/21 15:16:09;;;;;;;5.63;1.90;;;;;;;;;;13167004;22;20184;-84
2021/05/21 15:26:33;;;;;;;5.83;1.83;;;;;;;;;;13141315;22;20700;-83
2021/05/21 15:31:36;;;;;;;9.57;2.17;;;;;;;;;;13161100;22;20182;-82
2021/05/21 15:36:39;;;;;;;6.50;1.87;;;;;;;;;;13163305;22;20199;-82
2021/05/21 15:41:48;;;;;;;9.53;2.10;;;;;;;;;;13167735;22;20172;-81
2021/05/21 15:46:53;;;;;;;7.97;1.93;;;;;;;;;;13163939;22;20249;-82
2021/05/21 15:52:01;;;;;;;10.37;2.33;;;;;;;;;;13167341;22;20176;-83
2021/05/21 15:57:30;;;;;;;8.23;2.10;;;;;;;;;;13165184;22;20271;-83
2021/05/21 16:02:33;;;;;;;7.97;1.80;;;;;;;;;;13165871;22;20726;-82
2021/05/21 16:07:35;;;;;;;6.93;1.63;;;;;;;;;;13145617;22;20243;-83
2021/05/21 16:12:39;;;;;;;15.90;2.20;;;;;;;;;;13188174;22;20172;-84
2021/05/21 16:17:42;;;;;;;8.83;1.93;;;;;;;;;;13175769;22;20255;-84
2021/05/21 16:22:49;;;;;;;8.27;1.93;;;;;;;;;;13146268;22;20187;-83
2021/05/21 16:27:59;;;;;;;8.17;1.70;;;;;;;;;;13143501;22;20203;-82
2021/05/21 16:33:03;;;;;;;12.80;1.97;;;;;;;;;;13163724;22;20176;-83
2021/05/21 16:38:06;;;;;;;9.00;1.90;;;;;;;;;;13165878;22;20621;-83
2021/05/21 16:43:09;;;;;;;6.77;1.90;;;;;;;;;;13167202;22;20253;-84
2021/05/21 16:48:12;;;;;;;9.93;1.93;;;;;;;;;;13162901;22;20558;-84
2021/05/21 16:53:17;;;;;;;8.67;1.80;;;;;;;;;;13146294;22;20203;-86
2021/05/21 16:58:20;;;;;;;13.53;2.13;;;;;;;;;;13142921;22;20164;-87
2021/05/21 17:03:23;;;;;;;11.20;2.40;;;;;;;;;;13164974;22;20200;-85
2021/05/21 17:08:26;;;;;;;20.53;2.30;;;;;;;;;;13164564;22;20287;-85
2021/05/21 17:13:30;;;;;;;25.90;2.73;;;;;;;;;;13166207;22;20169;-84
2021/05/21 17:19:08;;;;;;;14.87;2.40;;;;;;;;;;13162614;22;20520;-86
2021/05/21 17:45:45;;;;;;;14.77;2.30;;;;;;;;;;13162552;22;20210;-83
2021/05/21 17:51:03;;;;;;;8.97;1.50;;;;;;;;;;13164586;22;20623;-82
2021/05/21 17:56:43;;;;;;;17.10;2.83;;;;;;;;;;13161352;22;20172;-83
2021/05/21 18:07:09;;;;;;;13.37;2.00;;;;;;;;;;13139110;22;20212;-83
2021/05/21 18:12:21;;;;;;;9.87;2.27;;;;;;;;;;13163727;22;20672;-82
2021/05/21 18:29:10;;;;;;;13.63;2.07;;;;;;;;;;13162771;22;20208;-84
2021/05/21 19:06:38;;;;;;;9.63;2.33;;;;;;;;;;13120958;22;20228;-83
2021/05/21 19:11:49;;;;;;;13.80;2.00;;;;;;;;;;13156613;22;20164;-83
2021/05/21 19:16:56;;;;;;;7.93;2.00;;;;;;;;;;13164382;22;20616;-83
2021/05/21 19:21:59;;;;;;;8.60;2.37;;;;;;;;;;13165445;22;20199;-83
2021/05/21 19:27:02;;;;;;;16.80;2.53;;;;;;;;;;13165716;22;20815;-83
2021/05/21 19:32:09;;;;;;;12.67;2.30;;;;;;;;;;13160623;22;20276;-84
2021/05/21 20:04:13;;;;;;;14.90;2.27;;;;;;;;;;13163416;22;20251;-82
2021/05/21 20:14:37;;;;;;;6.90;2.23;;;;;;;;;;13161764;22;20168;-83
2021/05/21 20:19:41;;;;;;;7.83;2.53;;;;;;;;;;13163017;22;20177;-84
2021/05/21 20:24:45;;;;;;;8.80;2.03;;;;;;;;;;13145014;22;20177;-84
2021/05/21 20:30:00;;;;;;;13.97;3.70;;;;;;;;;;13163590;22;20254;-83
2021/05/21 21:02:02;;;;;;;10.70;2.43;;;;;;;;;;13161665;22;20283;-84
2021/05/21 21:07:07;;;;;;;8.57;2.30;;;;;;;;;;13164867;22;20202;-83
2021/05/21 21:12:21;;;;;;;11.93;2.47;;;;;;;;;;13166065;22;20239;-82
2021/05/21 21:17:40;;;;;;;9.43;2.00;;;;;;;;;;13162709;22;20237;-82
2021/05/21 21:23:03;;;;;;;5.90;1.80;;;;;;;;;;13165523;22;20172;-87
2021/05/21 21:28:31;;;;;;;8.77;1.83;;;;;;;;;;13163546;22;20191;-84
2021/05/21 21:44:44;;;;;;;9.93;2.43;;;;;;;;;;13161790;22;20635;-86
2021/05/21 21:50:07;;;;;;;11.00;2.50;;;;;;;;;;13159036;22;20287;-85
2021/05/21 21:55:22;;;;;;;9.97;2.40;;;;;;;;;;13161207;22;20169;-86
2021/05/21 22:00:37;;;;;;;7.37;1.80;;;;;;;;;;13162230;22;20230;-84
2021/05/21 22:11:33;;;;;;;9.47;2.20;;;;;;;;;;13139562;22;20196;-84
2021/05/21 22:17:01;;;;;;;15.03;2.37;;;;;;;;;;13159378;22;20180;-85
2021/05/21 22:22:10;;;;;;;6.83;2.40;;;;;;;;;;13147896;22;20634;-85
2021/05/21 22:27:12;;;;;;;9.83;2.17;;;;;;;;;;13160638;22;20885;-85
2021/05/21 22:32:16;;;;;;;8.63;2.10;;;;;;;;;;13154025;22;20172;-84
2021/05/21 22:37:19;;;;;;;9.03;2.27;;;;;;;;;;13143870;22;20263;-84
2021/05/21 22:42:23;;;;;;;9.77;2.67;;;;;;;;;;13161248;22;20246;-83
2021/05/21 22:47:27;;;;;;;10.77;2.30;;;;;;;;;;13161316;22;20210;-84
2021/05/21 22:52:30;;;;;;;6.50;2.10;;;;;;;;;;13165749;22;20191;-85
2021/05/21 22:57:33;;;;;;;8.87;2.10;;;;;;;;;;13146562;22;20255;-85
2021/05/21 23:02:37;;;;;;;7.00;2.10;;;;;;;;;;13162388;22;20249;-85
2021/05/21 23:07:39;;;;;;;10.07;2.43;;;;;;;;;;13168030;22;20750;-84
2021/05/21 23:12:42;;;;;;;10.47;2.33;;;;;;;;;;13164221;22;20536;-85
2021/05/21 23:17:45;;;;;;;7.30;2.10;;;;;;;;;;13164370;22;20182;-86
2021/05/21 23:22:48;;;;;;;11.33;2.47;;;;;;;;;;13165962;22;20635;-85
2021/05/21 23:27:50;;;;;;;6.20;2.10;;;;;;;;;;13165893;22;20231;-86
2021/05/21 23:32:54;;;;;;;9.37;2.10;;;;;;;;;;13162533;22;20627;-86
2021/05/21 23:37:56;;;;;;;9.53;2.50;;;;;;;;;;13167155;22;20565;-86
2021/05/21 23:42:59;;;;;;;8.73;2.30;;;;;;;;;;13168125;22;20172;-86
2021/05/21 23:48:02;;;;;;;8.80;2.47;;;;;;;;;;13140736;22;20674;-85
2021/05/21 23:53:05;;;;;;;7.87;2.93;;;;;;;;;;13166892;22;20199;-84
2021/05/21 23:58:08;;;;;;;7.70;2.37;;;;;;;;;;13164881;22;20176;-84
